Manchester Airport

EGCC · 英格兰, 英国

罗盘
风向 的 风向 的 风向 到 风向 280° 曼彻斯特机场 5L/23R
风: 9 kt, 3 beaufort

6 kt

7 kt
改变
0 ft 1.000 2.000 3.000 4.000 5.000
Cloud Cloud
FEW 3.800
METAR EGNR 312050Z 28009KT 250V320 9999 FEW038 08/00 Q1023

METAR 曼彻斯特机场 - EGCC/MAN

曼彻斯特机场是,英国中的大型机场。 该机场有3条跑道: 5L/23R, 5R/23L 和 5/23. 该领域的国际民航组织标志是EGCC 它的国际航空运输协会代码是MAN.

这份报告是针对2023年1月31日 20:50, 当地时间在Hawarden Airport进行的。

机场观察

风向为280°,速度为9 kt。 风向在250°和320°之间变化。

可见度为10 km 或者更多。

有几云在3.800 ft的高度。 没有观察到天花板。

温度为8 °C,阵风为3 °C。 海平面上的气压为1023 hPa (QNH)。

白天

今天,太阳从07:55升起,在16:49降落。 这适用于曼彻斯特机场,世界夏令时可能有所不同。 当地时间与世界标准时间之间的时差为+0 小时。 当前,没有夏令时有效。

公司介绍

我们没有关于这个机场的公司信息。

体会

到Vliegles.nl去找飞行课程,跳伞和其他飞行体验。 浏览页面,了解曼彻斯特机场附近所有可用的活动。 你也可以使用搜索功能来寻找你所在地附近的特定飞行课程、跳伞或其他飞行体验。

跑道

Id 标题 侧风 逆风 侧风 %
5L/23R 052°-232° 7 kt 6 kt 74 %
5R/23L 051°-231° 7 kt 6 kt 75 %
5/23 051°-231° 7 kt 6 kt 75 %

逆风成分最大的方向会被突出显示,并用于横风计算。 这并不一定意味着这个方向在使用。

乌云

3.800 ft FEW 几云

温度 & 天气

温度 8 °C
露点 0 °C
相对湿度 57%
风寒 3 °C
Kp-index 2 (0-9)

白天

日出
07:57 (8:30)
中午
12:25
日落
16:53

小工具

你想在你的网站上有一个关于曼彻斯特机场的当前航空天气(METAR)的小部件吗?

显示HTML代码

我们和第三方通过cookies跟踪您在我们网站上的互联网行为。如果你继续,我们认为你同意我们的饼干政策